sensor_id;sensor_type;location;lat;lon;timestamp;temperature;humidity
10046;DHT22;5063;50.878;4.742;2023-04-08T00:01:13;9.30;99.90
10046;DHT22;5063;50.878;4.742;2023-04-08T00:03:39;9.20;99.90
10046;DHT22;5063;50.878;4.742;2023-04-08T00:06:05;9.20;99.90
10046;DHT22;5063;50.878;4.742;2023-04-08T00:08:31;9.20;99.90
10046;DHT22;5063;50.878;4.742;2023-04-08T00:10:56;9.20;99.90
10046;DHT22;5063;50.878;4.742;2023-04-08T00:13:22;9.30;99.90
10046;DHT22;5063;50.878;4.742;2023-04-08T00:15:48;9.30;99.90
10046;DHT22;5063;50.878;4.742;2023-04-08T00:18:15;9.30;99.90
10046;DHT22;5063;50.878;4.742;2023-04-08T00:20:42;9.20;99.90
10046;DHT22;5063;50.878;4.742;2023-04-08T00:23:08;9.20;99.90
10046;DHT22;5063;50.878;4.742;2023-04-08T00:25:34;9.20;99.90
10046;DHT22;5063;50.878;4.742;2023-04-08T00:27:59;9.30;99.90
10046;DHT22;5063;50.878;4.742;2023-04-08T00:30:25;9.10;99.90
10046;DHT22;5063;50.878;4.742;2023-04-08T00:32:52;9.10;99.90
10046;DHT22;5063;50.878;4.742;2023-04-08T00:35:18;9.20;99.90
10046;DHT22;5063;50.878;4.742;2023-04-08T00:37:44;9.20;99.90
10046;DHT22;5063;50.878;4.742;2023-04-08T00:40:10;9.20;99.90
10046;DHT22;5063;50.878;4.742;2023-04-08T00:42:37;9.20;99.90
10046;DHT22;5063;50.878;4.742;2023-04-08T00:45:03;9.30;99.90
10046;DHT22;5063;50.878;4.742;2023-04-08T00:47:29;9.20;99.90
10046;DHT22;5063;50.878;4.742;2023-04-08T00:49:55;9.30;99.90
10046;DHT22;5063;50.878;4.742;2023-04-08T00:52:21;9.30;99.90
10046;DHT22;5063;50.878;4.742;2023-04-08T00:54:47;9.20;99.90
10046;DHT22;5063;50.878;4.742;2023-04-08T00:57:13;9.20;99.90
10046;DHT22;5063;50.878;4.742;2023-04-08T00:59:39;9.40;99.90
10046;DHT22;5063;50.878;4.742;2023-04-08T01:02:23;9.20;99.90
10046;DHT22;5063;50.878;4.742;2023-04-08T01:07:36;9.20;99.90
10046;DHT22;5063;50.878;4.742;2023-04-08T01:10:26;9.20;99.90
10046;DHT22;5063;50.878;4.742;2023-04-08T01:12:55;9.30;99.90
10046;DHT22;5063;50.878;4.742;2023-04-08T01:15:23;9.30;99.90
10046;DHT22;5063;50.878;4.742;2023-04-08T01:17:53;9.10;99.90
10046;DHT22;5063;50.878;4.742;2023-04-08T01:20:23;9.20;99.90
10046;DHT22;5063;50.878;4.742;2023-04-08T01:25:43;9.20;99.90
10046;DHT22;5063;50.878;4.742;2023-04-08T01:28:13;9.30;99.90
10046;DHT22;5063;50.878;4.742;2023-04-08T01:30:41;9.20;99.90
10046;DHT22;5063;50.878;4.742;2023-04-08T01:33:11;9.20;99.90
10046;DHT22;5063;50.878;4.742;2023-04-08T01:35:38;9.20;99.90
10046;DHT22;5063;50.878;4.742;2023-04-08T01:38:06;9.20;99.90
10046;DHT22;5063;50.878;4.742;2023-04-08T01:40:33;9.20;99.90
10046;DHT22;5063;50.878;4.742;2023-04-08T01:43:01;9.20;99.90
10046;DHT22;5063;50.878;4.742;2023-04-08T01:45:28;9.20;99.90
10046;DHT22;5063;50.878;4.742;2023-04-08T01:47:55;9.20;99.90
10046;DHT22;5063;50.878;4.742;2023-04-08T01:50:22;9.10;99.90
10046;DHT22;5063;50.878;4.742;2023-04-08T01:52:49;9.10;99.90
10046;DHT22;5063;50.878;4.742;2023-04-08T01:55:18;9.10;99.90
10046;DHT22;5063;50.878;4.742;2023-04-08T01:57:49;9.10;99.90
10046;DHT22;5063;50.878;4.742;2023-04-08T02:00:20;9.10;99.90
10046;DHT22;5063;50.878;4.742;2023-04-08T02:02:47;9.20;99.90
10046;DHT22;5063;50.878;4.742;2023-04-08T02:05:14;9.20;99.90
10046;DHT22;5063;50.878;4.742;2023-04-08T02:07:39;9.20;99.90
10046;DHT22;5063;50.878;4.742;2023-04-08T02:10:06;9.20;99.90
10046;DHT22;5063;50.878;4.742;2023-04-08T02:12:32;9.20;99.90
10046;DHT22;5063;50.878;4.742;2023-04-08T02:14:58;9.20;99.90
10046;DHT22;5063;50.878;4.742;2023-04-08T02:17:38;9.30;99.90
10046;DHT22;5063;50.878;4.742;2023-04-08T02:20:17;9.20;99.90
10046;DHT22;5063;50.878;4.742;2023-04-08T02:23:02;9.10;99.90
10046;DHT22;5063;50.878;4.742;2023-04-08T02:25:34;9.20;99.90
10046;DHT22;5063;50.878;4.742;2023-04-08T02:28:04;9.10;99.90
10046;DHT22;5063;50.878;4.742;2023-04-08T02:30:31;9.20;99.90
10046;DHT22;5063;50.878;4.742;2023-04-08T02:33:00;9.20;99.90
10046;DHT22;5063;50.878;4.742;2023-04-08T02:35:28;9.20;99.90
10046;DHT22;5063;50.878;4.742;2023-04-08T02:37:53;9.40;99.90
10046;DHT22;5063;50.878;4.742;2023-04-08T02:40:27;9.20;99.90
10046;DHT22;5063;50.878;4.742;2023-04-08T02:42:54;9.20;99.90
10046;DHT22;5063;50.878;4.742;2023-04-08T02:45:20;9.10;99.90
10046;DHT22;5063;50.878;4.742;2023-04-08T02:47:46;9.10;99.90
10046;DHT22;5063;50.878;4.742;2023-04-08T02:50:12;9.20;99.90
10046;DHT22;5063;50.878;4.742;2023-04-08T02:52:37;9.20;99.90
10046;DHT22;5063;50.878;4.742;2023-04-08T02:55:04;9.10;99.90
10046;DHT22;5063;50.878;4.742;2023-04-08T02:57:35;9.10;99.90
10046;DHT22;5063;50.878;4.742;2023-04-08T03:00:03;9.10;99.90
10046;DHT22;5063;50.878;4.742;2023-04-08T03:02:29;9.10;99.90
10046;DHT22;5063;50.878;4.742;2023-04-08T03:04:54;9.20;99.90
10046;DHT22;5063;50.878;4.742;2023-04-08T03:07:20;9.20;99.90
10046;DHT22;5063;50.878;4.742;2023-04-08T03:09:46;9.10;99.90
10046;DHT22;5063;50.878;4.742;2023-04-08T03:12:11;9.10;99.90
10046;DHT22;5063;50.878;4.742;2023-04-08T03:14:37;9.10;99.90
10046;DHT22;5063;50.878;4.742;2023-04-08T03:17:03;9.10;99.90
10046;DHT22;5063;50.878;4.742;2023-04-08T03:19:29;9.10;99.90
10046;DHT22;5063;50.878;4.742;2023-04-08T03:21:54;9.10;99.90
10046;DHT22;5063;50.878;4.742;2023-04-08T03:24:20;9.10;99.90
10046;DHT22;5063;50.878;4.742;2023-04-08T03:26:46;9.00;99.90
10046;DHT22;5063;50.878;4.742;2023-04-08T03:29:11;9.00;99.90
10046;DHT22;5063;50.878;4.742;2023-04-08T03:31:37;9.10;99.90
10046;DHT22;5063;50.878;4.742;2023-04-08T03:34:03;9.10;99.90
10046;DHT22;5063;50.878;4.742;2023-04-08T03:36:29;9.10;99.90
10046;DHT22;5063;50.878;4.742;2023-04-08T03:38:55;9.00;99.90
10046;DHT22;5063;50.878;4.742;2023-04-08T03:41:21;9.00;99.90
10046;DHT22;5063;50.878;4.742;2023-04-08T03:43:46;9.10;99.90
10046;DHT22;5063;50.878;4.742;2023-04-08T03:46:12;9.10;99.90
10046;DHT22;5063;50.878;4.742;2023-04-08T03:48:38;9.00;99.90
10046;DHT22;5063;50.878;4.742;2023-04-08T03:51:03;9.00;99.90
10046;DHT22;5063;50.878;4.742;2023-04-08T03:53:29;9.00;99.90
10046;DHT22;5063;50.878;4.742;2023-04-08T03:55:56;9.00;99.90
10046;DHT22;5063;50.878;4.742;2023-04-08T03:58:21;9.00;99.90
10046;DHT22;5063;50.878;4.742;2023-04-08T04:00:47;9.10;99.90
10046;DHT22;5063;50.878;4.742;2023-04-08T04:03:13;9.10;99.90
10046;DHT22;5063;50.878;4.742;2023-04-08T04:05:39;9.00;99.90
10046;DHT22;5063;50.878;4.742;2023-04-08T04:08:05;9.10;99.90
10046;DHT22;5063;50.878;4.742;2023-04-08T04:10:31;9.00;99.90
10046;DHT22;5063;50.878;4.742;2023-04-08T04:12:57;8.90;99.90
10046;DHT22;5063;50.878;4.742;2023-04-08T04:15:22;9.00;99.90
10046;DHT22;5063;50.878;4.742;2023-04-08T04:17:48;8.90;99.90
10046;DHT22;5063;50.878;4.742;2023-04-08T04:20:16;9.00;99.90
10046;DHT22;5063;50.878;4.742;2023-04-08T04:22:42;9.00;99.90
10046;DHT22;5063;50.878;4.742;2023-04-08T04:25:08;9.00;99.90
10046;DHT22;5063;50.878;4.742;2023-04-08T04:27:34;9.00;99.90
10046;DHT22;5063;50.878;4.742;2023-04-08T04:30:01;9.00;99.90
10046;DHT22;5063;50.878;4.742;2023-04-08T04:32:27;9.00;99.90
10046;DHT22;5063;50.878;4.742;2023-04-08T04:34:53;9.00;99.90
10046;DHT22;5063;50.878;4.742;2023-04-08T04:37:19;8.80;99.90
10046;DHT22;5063;50.878;4.742;2023-04-08T04:39:45;9.00;99.90
10046;DHT22;5063;50.878;4.742;2023-04-08T04:42:11;9.00;99.90
10046;DHT22;5063;50.878;4.742;2023-04-08T04:44:36;9.00;99.90
10046;DHT22;5063;50.878;4.742;2023-04-08T04:47:02;9.10;99.90
10046;DHT22;5063;50.878;4.742;2023-04-08T04:49:28;9.10;99.90
10046;DHT22;5063;50.878;4.742;2023-04-08T04:51:54;9.10;99.90
10046;DHT22;5063;50.878;4.742;2023-04-08T04:54:19;9.10;99.90
10046;DHT22;5063;50.878;4.742;2023-04-08T04:56:45;9.10;99.90
10046;DHT22;5063;50.878;4.742;2023-04-08T04:59:11;9.10;99.90
10046;DHT22;5063;50.878;4.742;2023-04-08T05:01:37;9.10;99.90
10046;DHT22;5063;50.878;4.742;2023-04-08T05:04:06;9.10;99.90
10046;DHT22;5063;50.878;4.742;2023-04-08T05:06:32;9.10;99.90
10046;DHT22;5063;50.878;4.742;2023-04-08T05:08:58;9.10;99.90
10046;DHT22;5063;50.878;4.742;2023-04-08T05:11:23;9.00;99.90
10046;DHT22;5063;50.878;4.742;2023-04-08T05:13:49;9.00;99.90
10046;DHT22;5063;50.878;4.742;2023-04-08T05:16:15;9.00;99.90
10046;DHT22;5063;50.878;4.742;2023-04-08T05:18:41;9.00;99.90
10046;DHT22;5063;50.878;4.742;2023-04-08T05:21:07;9.10;99.90
10046;DHT22;5063;50.878;4.742;2023-04-08T05:23:34;9.10;99.90
10046;DHT22;5063;50.878;4.742;2023-04-08T05:25:59;9.10;99.90
10046;DHT22;5063;50.878;4.742;2023-04-08T05:28:25;9.10;99.90
10046;DHT22;5063;50.878;4.742;2023-04-08T05:30:52;9.20;99.90
10046;DHT22;5063;50.878;4.742;2023-04-08T05:33:18;9.20;99.90
10046;DHT22;5063;50.878;4.742;2023-04-08T05:35:45;9.20;99.90
10046;DHT22;5063;50.878;4.742;2023-04-08T05:38:11;9.20;99.90
10046;DHT22;5063;50.878;4.742;2023-04-08T05:40:36;9.20;99.90
10046;DHT22;5063;50.878;4.742;2023-04-08T05:43:02;9.30;99.90
10046;DHT22;5063;50.878;4.742;2023-04-08T05:45:28;9.30;99.90
10046;DHT22;5063;50.878;4.742;2023-04-08T05:47:54;9.30;99.90
10046;DHT22;5063;50.878;4.742;2023-04-08T05:50:20;9.30;99.90
10046;DHT22;5063;50.878;4.742;2023-04-08T05:52:46;9.30;99.90
10046;DHT22;5063;50.878;4.742;2023-04-08T05:55:12;9.30;99.90
10046;DHT22;5063;50.878;4.742;2023-04-08T05:57:39;9.40;99.90
10046;DHT22;5063;50.878;4.742;2023-04-08T06:00:06;9.40;99.90
10046;DHT22;5063;50.878;4.742;2023-04-08T06:02:33;9.40;99.90
10046;DHT22;5063;50.878;4.742;2023-04-08T06:04:59;9.50;99.90
10046;DHT22;5063;50.878;4.742;2023-04-08T06:07:24;9.60;99.90
10046;DHT22;5063;50.878;4.742;2023-04-08T06:09:51;9.70;99.90
10046;DHT22;5063;50.878;4.742;2023-04-08T06:12:16;9.80;99.90
10046;DHT22;5063;50.878;4.742;2023-04-08T06:14:42;9.80;99.90
10046;DHT22;5063;50.878;4.742;2023-04-08T06:17:08;9.90;99.90
10046;DHT22;5063;50.878;4.742;2023-04-08T06:19:34;10.00;99.90
10046;DHT22;5063;50.878;4.742;2023-04-08T06:21:59;10.10;99.90
10046;DHT22;5063;50.878;4.742;2023-04-08T06:24:25;10.20;99.90
10046;DHT22;5063;50.878;4.742;2023-04-08T06:26:52;10.20;99.90
10046;DHT22;5063;50.878;4.742;2023-04-08T06:29:22;10.30;99.90
10046;DHT22;5063;50.878;4.742;2023-04-08T06:31:49;10.40;99.90
10046;DHT22;5063;50.878;4.742;2023-04-08T06:34:15;10.30;99.90
10046;DHT22;5063;50.878;4.742;2023-04-08T06:36:40;10.40;99.90
10046;DHT22;5063;50.878;4.742;2023-04-08T06:39:06;10.30;99.90
10046;DHT22;5063;50.878;4.742;2023-04-08T06:41:32;10.40;99.90
10046;DHT22;5063;50.878;4.742;2023-04-08T06:43:58;10.60;99.90
10046;DHT22;5063;50.878;4.742;2023-04-08T06:46:24;10.60;99.90
10046;DHT22;5063;50.878;4.742;2023-04-08T06:48:50;10.50;99.90
10046;DHT22;5063;50.878;4.742;2023-04-08T06:51:15;10.70;99.90
10046;DHT22;5063;50.878;4.742;2023-04-08T06:53:41;10.80;99.90
10046;DHT22;5063;50.878;4.742;2023-04-08T06:56:07;11.00;99.90
10046;DHT22;5063;50.878;4.742;2023-04-08T06:58:33;11.10;99.90
10046;DHT22;5063;50.878;4.742;2023-04-08T07:00:59;11.00;99.90
10046;DHT22;5063;50.878;4.742;2023-04-08T07:03:25;11.20;99.90
10046;DHT22;5063;50.878;4.742;2023-04-08T07:05:51;11.30;99.90
10046;DHT22;5063;50.878;4.742;2023-04-08T07:08:17;11.30;99.90
10046;DHT22;5063;50.878;4.742;2023-04-08T07:10:43;11.40;99.90
10046;DHT22;5063;50.878;4.742;2023-04-08T07:13:09;11.60;99.90
10046;DHT22;5063;50.878;4.742;2023-04-08T07:15:35;11.90;99.90
10046;DHT22;5063;50.878;4.742;2023-04-08T07:18:01;12.20;99.90
10046;DHT22;5063;50.878;4.742;2023-04-08T07:20:29;12.40;99.90
10046;DHT22;5063;50.878;4.742;2023-04-08T07:22:55;12.80;99.90
10046;DHT22;5063;50.878;4.742;2023-04-08T07:25:20;13.00;99.90
10046;DHT22;5063;50.878;4.742;2023-04-08T07:27:46;13.60;99.90
10046;DHT22;5063;50.878;4.742;2023-04-08T07:30:12;13.90;99.90
10046;DHT22;5063;50.878;4.742;2023-04-08T07:32:38;14.10;99.90
10046;DHT22;5063;50.878;4.742;2023-04-08T07:35:04;14.40;99.90
10046;DHT22;5063;50.878;4.742;2023-04-08T07:37:30;14.40;99.90
10046;DHT22;5063;50.878;4.742;2023-04-08T07:39:56;14.40;99.90
10046;DHT22;5063;50.878;4.742;2023-04-08T07:42:21;13.90;99.90
10046;DHT22;5063;50.878;4.742;2023-04-08T07:44:47;13.30;99.90
10046;DHT22;5063;50.878;4.742;2023-04-08T07:47:13;13.20;99.90
10046;DHT22;5063;50.878;4.742;2023-04-08T07:49:39;13.20;99.90
10046;DHT22;5063;50.878;4.742;2023-04-08T07:52:05;12.90;99.90
10046;DHT22;5063;50.878;4.742;2023-04-08T07:54:31;12.80;99.90
10046;DHT22;5063;50.878;4.742;2023-04-08T07:56:59;12.90;99.90
10046;DHT22;5063;50.878;4.742;2023-04-08T07:59:24;13.10;99.90
10046;DHT22;5063;50.878;4.742;2023-04-08T08:01:51;12.80;99.90
10046;DHT22;5063;50.878;4.742;2023-04-08T08:04:16;12.70;99.90
10046;DHT22;5063;50.878;4.742;2023-04-08T08:06:42;12.80;99.90
10046;DHT22;5063;50.878;4.742;2023-04-08T08:09:08;12.90;99.90
10046;DHT22;5063;50.878;4.742;2023-04-08T08:11:34;13.10;99.90
10046;DHT22;5063;50.878;4.742;2023-04-08T08:13:59;13.30;99.90
10046;DHT22;5063;50.878;4.742;2023-04-08T08:16:30;13.10;99.90
10046;DHT22;5063;50.878;4.742;2023-04-08T08:18:56;13.10;99.90
10046;DHT22;5063;50.878;4.742;2023-04-08T08:21:22;12.80;99.90
10046;DHT22;5063;50.878;4.742;2023-04-08T08:23:48;13.20;99.90
10046;DHT22;5063;50.878;4.742;2023-04-08T08:26:14;13.30;99.90
10046;DHT22;5063;50.878;4.742;2023-04-08T08:28:40;13.30;99.90
10046;DHT22;5063;50.878;4.742;2023-04-08T08:31:06;13.40;99.90
10046;DHT22;5063;50.878;4.742;2023-04-08T08:33:32;13.20;99.90
10046;DHT22;5063;50.878;4.742;2023-04-08T08:35:58;13.50;99.90
10046;DHT22;5063;50.878;4.742;2023-04-08T08:38:24;13.60;99.90
10046;DHT22;5063;50.878;4.742;2023-04-08T08:40:54;14.10;99.90
10046;DHT22;5063;50.878;4.742;2023-04-08T08:43:21;14.50;99.90
10046;DHT22;5063;50.878;4.742;2023-04-08T08:45:47;14.60;99.90
10046;DHT22;5063;50.878;4.742;2023-04-08T08:48:12;15.00;99.90
10046;DHT22;5063;50.878;4.742;2023-04-08T08:50:39;15.10;99.90
10046;DHT22;5063;50.878;4.742;2023-04-08T08:53:04;15.00;99.90
10046;DHT22;5063;50.878;4.742;2023-04-08T08:55:31;14.90;99.90
10046;DHT22;5063;50.878;4.742;2023-04-08T08:58:01;14.60;99.90
10046;DHT22;5063;50.878;4.742;2023-04-08T09:03:23;14.60;99.90
10046;DHT22;5063;50.878;4.742;2023-04-08T09:05:57;14.80;99.90
10046;DHT22;5063;50.878;4.742;2023-04-08T09:08:35;14.70;99.90
10046;DHT22;5063;50.878;4.742;2023-04-08T09:11:16;14.60;99.90
10046;DHT22;5063;50.878;4.742;2023-04-08T09:13:43;14.70;99.90
10046;DHT22;5063;50.878;4.742;2023-04-08T09:16:14;14.80;99.90
10046;DHT22;5063;50.878;4.742;2023-04-08T09:18:43;14.90;99.90
10046;DHT22;5063;50.878;4.742;2023-04-08T09:21:11;14.60;99.90
10046;DHT22;5063;50.878;4.742;2023-04-08T09:23:46;14.60;99.90
10046;DHT22;5063;50.878;4.742;2023-04-08T09:26:20;14.90;99.90
10046;DHT22;5063;50.878;4.742;2023-04-08T09:29:07;15.40;99.90
10046;DHT22;5063;50.878;4.742;2023-04-08T09:31:38;15.80;99.90
10046;DHT22;5063;50.878;4.742;2023-04-08T09:34:14;16.10;99.90
10046;DHT22;5063;50.878;4.742;2023-04-08T09:36:45;16.10;99.90
10046;DHT22;5063;50.878;4.742;2023-04-08T09:39:11;16.00;99.90
10046;DHT22;5063;50.878;4.742;2023-04-08T09:41:38;16.10;99.90
10046;DHT22;5063;50.878;4.742;2023-04-08T09:44:05;16.60;99.90
10046;DHT22;5063;50.878;4.742;2023-04-08T09:49:11;17.30;99.90
10046;DHT22;5063;50.878;4.742;2023-04-08T09:51:48;17.50;99.90
10046;DHT22;5063;50.878;4.742;2023-04-08T09:54:21;17.90;99.90
10046;DHT22;5063;50.878;4.742;2023-04-08T09:57:04;17.10;99.90
10046;DHT22;5063;50.878;4.742;2023-04-08T09:59:36;16.90;99.90
10046;DHT22;5063;50.878;4.742;2023-04-08T10:02:08;16.80;99.90
10046;DHT22;5063;50.878;4.742;2023-04-08T10:04:38;16.70;99.90
10046;DHT22;5063;50.878;4.742;2023-04-08T10:07:07;16.60;99.90
10046;DHT22;5063;50.878;4.742;2023-04-08T10:09:34;16.40;99.90
10046;DHT22;5063;50.878;4.742;2023-04-08T10:12:01;16.20;99.90
10046;DHT22;5063;50.878;4.742;2023-04-08T10:14:28;15.80;99.90
10046;DHT22;5063;50.878;4.742;2023-04-08T10:17:23;15.30;99.90
10046;DHT22;5063;50.878;4.742;2023-04-08T10:19:50;15.20;99.90
10046;DHT22;5063;50.878;4.742;2023-04-08T10:27:43;15.40;99.90
10046;DHT22;5063;50.878;4.742;2023-04-08T10:32:59;15.50;99.90
10046;DHT22;5063;50.878;4.742;2023-04-08T10:37:59;15.40;99.90
10046;DHT22;5063;50.878;4.742;2023-04-08T10:40:25;15.70;99.90
10046;DHT22;5063;50.878;4.742;2023-04-08T10:42:54;15.60;99.90
10046;DHT22;5063;50.878;4.742;2023-04-08T10:45:21;15.70;99.90
10046;DHT22;5063;50.878;4.742;2023-04-08T10:47:47;15.70;99.90
10046;DHT22;5063;50.878;4.742;2023-04-08T10:50:17;15.80;99.90
10046;DHT22;5063;50.878;4.742;2023-04-08T10:52:51;16.20;99.90
10046;DHT22;5063;50.878;4.742;2023-04-08T10:55:24;16.10;99.90
10046;DHT22;5063;50.878;4.742;2023-04-08T10:57:50;15.70;99.90
10046;DHT22;5063;50.878;4.742;2023-04-08T11:00:38;15.90;99.90
10046;DHT22;5063;50.878;4.742;2023-04-08T11:03:08;16.00;99.90
10046;DHT22;5063;50.878;4.742;2023-04-08T11:05:34;16.20;99.90
10046;DHT22;5063;50.878;4.742;2023-04-08T11:08:04;16.20;99.90
10046;DHT22;5063;50.878;4.742;2023-04-08T11:10:33;16.40;99.90
10046;DHT22;5063;50.878;4.742;2023-04-08T11:13:01;16.60;99.90
10046;DHT22;5063;50.878;4.742;2023-04-08T11:15:29;16.70;99.90
10046;DHT22;5063;50.878;4.742;2023-04-08T11:17:55;16.90;99.90
10046;DHT22;5063;50.878;4.742;2023-04-08T11:20:21;17.00;99.90
10046;DHT22;5063;50.878;4.742;2023-04-08T11:22:47;16.90;99.90
10046;DHT22;5063;50.878;4.742;2023-04-08T11:25:13;16.70;99.90
10046;DHT22;5063;50.878;4.742;2023-04-08T11:27:39;16.50;99.90
10046;DHT22;5063;50.878;4.742;2023-04-08T11:30:08;16.70;99.90
10046;DHT22;5063;50.878;4.742;2023-04-08T11:32:35;17.10;99.90
10046;DHT22;5063;50.878;4.742;2023-04-08T11:35:04;16.90;99.90
10046;DHT22;5063;50.878;4.742;2023-04-08T11:37:40;17.50;99.90
10046;DHT22;5063;50.878;4.742;2023-04-08T11:40:10;17.50;99.90
10046;DHT22;5063;50.878;4.742;2023-04-08T11:42:37;17.30;99.90
10046;DHT22;5063;50.878;4.742;2023-04-08T11:45:11;16.80;99.90
10046;DHT22;5063;50.878;4.742;2023-04-08T11:47:38;16.60;99.90
10046;DHT22;5063;50.878;4.742;2023-04-08T11:50:04;16.60;99.90
10046;DHT22;5063;50.878;4.742;2023-04-08T11:52:45;16.60;99.90
10046;DHT22;5063;50.878;4.742;2023-04-08T11:55:20;16.40;99.90
10046;DHT22;5063;50.878;4.742;2023-04-08T11:57:47;15.80;99.90
10046;DHT22;5063;50.878;4.742;2023-04-08T12:00:12;15.80;99.90
10046;DHT22;5063;50.878;4.742;2023-04-08T12:02:39;16.00;99.90
10046;DHT22;5063;50.878;4.742;2023-04-08T12:05:05;15.60;99.90
10046;DHT22;5063;50.878;4.742;2023-04-08T12:07:31;15.80;99.90
10046;DHT22;5063;50.878;4.742;2023-04-08T12:09:57;15.80;99.90
10046;DHT22;5063;50.878;4.742;2023-04-08T12:12:22;15.90;99.90
10046;DHT22;5063;50.878;4.742;2023-04-08T12:14:49;16.30;99.90
10046;DHT22;5063;50.878;4.742;2023-04-08T12:17:14;16.80;99.90
10046;DHT22;5063;50.878;4.742;2023-04-08T12:19:40;16.90;99.90
10046;DHT22;5063;50.878;4.742;2023-04-08T12:22:06;16.70;99.90
10046;DHT22;5063;50.878;4.742;2023-04-08T12:24:32;16.80;99.90
10046;DHT22;5063;50.878;4.742;2023-04-08T12:26:58;17.00;99.90
10046;DHT22;5063;50.878;4.742;2023-04-08T12:29:23;17.20;99.90
10046;DHT22;5063;50.878;4.742;2023-04-08T12:31:49;16.30;99.90
10046;DHT22;5063;50.878;4.742;2023-04-08T12:34:16;16.40;99.90
10046;DHT22;5063;50.878;4.742;2023-04-08T12:36:41;16.60;99.90
10046;DHT22;5063;50.878;4.742;2023-04-08T12:39:07;16.30;99.90
10046;DHT22;5063;50.878;4.742;2023-04-08T12:41:33;16.50;99.90
10046;DHT22;5063;50.878;4.742;2023-04-08T12:43:59;16.60;99.90
10046;DHT22;5063;50.878;4.742;2023-04-08T12:46:25;16.30;99.90
10046;DHT22;5063;50.878;4.742;2023-04-08T12:48:51;16.10;99.90
10046;DHT22;5063;50.878;4.742;2023-04-08T12:51:16;16.40;99.90
10046;DHT22;5063;50.878;4.742;2023-04-08T12:53:42;16.80;99.90
10046;DHT22;5063;50.878;4.742;2023-04-08T12:56:08;17.30;99.90
10046;DHT22;5063;50.878;4.742;2023-04-08T12:58:34;17.20;99.90
10046;DHT22;5063;50.878;4.742;2023-04-08T13:01:00;17.60;99.90
10046;DHT22;5063;50.878;4.742;2023-04-08T13:03:25;18.10;99.90
10046;DHT22;5063;50.878;4.742;2023-04-08T13:05:54;18.50;99.90
10046;DHT22;5063;50.878;4.742;2023-04-08T13:08:21;19.20;99.90
10046;DHT22;5063;50.878;4.742;2023-04-08T13:10:53;19.20;99.90
10046;DHT22;5063;50.878;4.742;2023-04-08T13:13:20;19.20;99.90
10046;DHT22;5063;50.878;4.742;2023-04-08T13:15:45;18.90;99.90
10046;DHT22;5063;50.878;4.742;2023-04-08T13:18:12;18.10;99.90
10046;DHT22;5063;50.878;4.742;2023-04-08T13:20:37;17.40;99.90
10046;DHT22;5063;50.878;4.742;2023-04-08T13:23:03;17.00;99.90
10046;DHT22;5063;50.878;4.742;2023-04-08T13:25:29;16.50;99.90
10046;DHT22;5063;50.878;4.742;2023-04-08T13:27:55;16.40;99.90
10046;DHT22;5063;50.878;4.742;2023-04-08T13:30:20;16.40;99.90
10046;DHT22;5063;50.878;4.742;2023-04-08T13:32:46;16.20;99.90
10046;DHT22;5063;50.878;4.742;2023-04-08T13:35:12;16.10;99.90
10046;DHT22;5063;50.878;4.742;2023-04-08T13:37:38;16.30;99.90
10046;DHT22;5063;50.878;4.742;2023-04-08T13:40:04;16.30;99.90
10046;DHT22;5063;50.878;4.742;2023-04-08T13:42:30;16.30;99.90
10046;DHT22;5063;50.878;4.742;2023-04-08T13:44:57;16.40;99.90
10046;DHT22;5063;50.878;4.742;2023-04-08T13:47:23;16.50;99.90
10046;DHT22;5063;50.878;4.742;2023-04-08T13:49:49;16.60;99.90
10046;DHT22;5063;50.878;4.742;2023-04-08T13:52:15;16.90;99.90
10046;DHT22;5063;50.878;4.742;2023-04-08T13:54:40;17.40;99.90
10046;DHT22;5063;50.878;4.742;2023-04-08T13:57:06;17.70;99.90
10046;DHT22;5063;50.878;4.742;2023-04-08T13:59:32;18.00;99.90
10046;DHT22;5063;50.878;4.742;2023-04-08T14:01:58;18.30;99.90
10046;DHT22;5063;50.878;4.742;2023-04-08T14:04:23;18.60;99.90
10046;DHT22;5063;50.878;4.742;2023-04-08T14:06:50;18.70;99.90
10046;DHT22;5063;50.878;4.742;2023-04-08T14:09:18;18.20;99.90
10046;DHT22;5063;50.878;4.742;2023-04-08T14:11:44;17.30;99.90
10046;DHT22;5063;50.878;4.742;2023-04-08T14:14:10;16.80;99.90
10046;DHT22;5063;50.878;4.742;2023-04-08T14:16:35;16.60;99.90
10046;DHT22;5063;50.878;4.742;2023-04-08T14:19:02;16.40;99.90
10046;DHT22;5063;50.878;4.742;2023-04-08T14:21:28;16.00;99.90
10046;DHT22;5063;50.878;4.742;2023-04-08T14:23:54;15.80;99.90
10046;DHT22;5063;50.878;4.742;2023-04-08T14:26:20;15.80;99.90
10046;DHT22;5063;50.878;4.742;2023-04-08T14:28:46;15.90;99.90
10046;DHT22;5063;50.878;4.742;2023-04-08T14:31:12;16.20;99.90
10046;DHT22;5063;50.878;4.742;2023-04-08T14:33:38;16.60;99.90
10046;DHT22;5063;50.878;4.742;2023-04-08T14:36:04;16.90;99.90
10046;DHT22;5063;50.878;4.742;2023-04-08T14:38:31;17.00;99.90
10046;DHT22;5063;50.878;4.742;2023-04-08T14:40:56;17.10;99.90
10046;DHT22;5063;50.878;4.742;2023-04-08T14:43:22;17.10;99.90
10046;DHT22;5063;50.878;4.742;2023-04-08T14:45:51;17.20;99.90
10046;DHT22;5063;50.878;4.742;2023-04-08T14:48:17;17.30;99.90
10046;DHT22;5063;50.878;4.742;2023-04-08T14:50:43;17.30;99.90
10046;DHT22;5063;50.878;4.742;2023-04-08T14:53:09;17.50;99.90
10046;DHT22;5063;50.878;4.742;2023-04-08T14:55:35;17.30;99.90
10046;DHT22;5063;50.878;4.742;2023-04-08T14:58:01;17.30;99.90
10046;DHT22;5063;50.878;4.742;2023-04-08T15:00:27;17.50;99.90
10046;DHT22;5063;50.878;4.742;2023-04-08T15:02:53;18.00;99.90
10046;DHT22;5063;50.878;4.742;2023-04-08T15:05:18;18.40;99.90
10046;DHT22;5063;50.878;4.742;2023-04-08T15:07:45;18.90;99.90
10046;DHT22;5063;50.878;4.742;2023-04-08T15:10:11;19.40;99.90
10046;DHT22;5063;50.878;4.742;2023-04-08T15:12:37;19.10;99.90
10046;DHT22;5063;50.878;4.742;2023-04-08T15:15:03;18.70;99.90
10046;DHT22;5063;50.878;4.742;2023-04-08T15:17:29;18.40;99.90
10046;DHT22;5063;50.878;4.742;2023-04-08T15:19:55;18.10;99.90
10046;DHT22;5063;50.878;4.742;2023-04-08T15:22:21;17.80;99.90
10046;DHT22;5063;50.878;4.742;2023-04-08T15:24:47;17.60;99.90
10046;DHT22;5063;50.878;4.742;2023-04-08T15:27:12;17.40;99.90
10046;DHT22;5063;50.878;4.742;2023-04-08T15:29:39;17.10;99.90
10046;DHT22;5063;50.878;4.742;2023-04-08T15:32:05;16.90;99.90
10046;DHT22;5063;50.878;4.742;2023-04-08T15:34:30;16.80;99.90
10046;DHT22;5063;50.878;4.742;2023-04-08T15:36:56;16.80;99.90
10046;DHT22;5063;50.878;4.742;2023-04-08T15:39:23;16.80;99.90
10046;DHT22;5063;50.878;4.742;2023-04-08T15:41:48;16.80;99.90
10046;DHT22;5063;50.878;4.742;2023-04-08T15:44:14;16.90;99.90
10046;DHT22;5063;50.878;4.742;2023-04-08T15:46:40;16.90;99.90
10046;DHT22;5063;50.878;4.742;2023-04-08T15:49:06;16.80;99.90
10046;DHT22;5063;50.878;4.742;2023-04-08T15:51:32;16.80;99.90
10046;DHT22;5063;50.878;4.742;2023-04-08T15:53:58;17.00;99.90
10046;DHT22;5063;50.878;4.742;2023-04-08T15:56:24;17.30;99.90
10046;DHT22;5063;50.878;4.742;2023-04-08T15:58:51;17.30;99.90
10046;DHT22;5063;50.878;4.742;2023-04-08T16:01:17;17.20;99.90
10046;DHT22;5063;50.878;4.742;2023-04-08T16:03:45;17.20;99.90
10046;DHT22;5063;50.878;4.742;2023-04-08T16:06:11;17.20;99.90
10046;DHT22;5063;50.878;4.742;2023-04-08T16:08:36;17.20;99.90
10046;DHT22;5063;50.878;4.742;2023-04-08T16:11:03;17.50;99.90
10046;DHT22;5063;50.878;4.742;2023-04-08T16:13:31;17.60;99.90